sensor_id;sensor_type;location;lat;lon;timestamp;P1;durP1;ratioP1;P2;durP2;ratioP2
10216;SDS011;5152;59.674;16.838;2022-07-06T00:01:47;2.10;;;1.00;;
10216;SDS011;5152;59.674;16.838;2022-07-06T00:04:15;5.13;;;1.30;;
10216;SDS011;5152;59.674;16.838;2022-07-06T00:06:42;4.67;;;1.27;;
10216;SDS011;5152;59.674;16.838;2022-07-06T00:09:09;2.20;;;0.90;;
10216;SDS011;5152;59.674;16.838;2022-07-06T00:11:36;9.03;;;1.30;;
10216;SDS011;5152;59.674;16.838;2022-07-06T00:14:03;8.97;;;1.70;;
10216;SDS011;5152;59.674;16.838;2022-07-06T00:16:31;5.23;;;1.50;;
10216;SDS011;5152;59.674;16.838;2022-07-06T00:18:57;5.37;;;1.50;;
10216;SDS011;5152;59.674;16.838;2022-07-06T00:21:24;5.63;;;1.10;;
10216;SDS011;5152;59.674;16.838;2022-07-06T00:23:51;3.73;;;1.40;;
10216;SDS011;5152;59.674;16.838;2022-07-06T00:26:18;6.47;;;1.43;;
10216;SDS011;5152;59.674;16.838;2022-07-06T00:28:44;6.33;;;1.20;;
10216;SDS011;5152;59.674;16.838;2022-07-06T00:31:11;3.93;;;1.20;;
10216;SDS011;5152;59.674;16.838;2022-07-06T00:33:39;3.07;;;1.17;;
10216;SDS011;5152;59.674;16.838;2022-07-06T00:36:06;3.80;;;1.40;;
10216;SDS011;5152;59.674;16.838;2022-07-06T00:38:33;5.90;;;1.13;;
10216;SDS011;5152;59.674;16.838;2022-07-06T00:41:00;4.63;;;1.43;;
10216;SDS011;5152;59.674;16.838;2022-07-06T00:43:26;4.17;;;1.20;;
10216;SDS011;5152;59.674;16.838;2022-07-06T00:45:53;10.93;;;1.90;;
10216;SDS011;5152;59.674;16.838;2022-07-06T00:48:20;5.73;;;1.00;;
10216;SDS011;5152;59.674;16.838;2022-07-06T00:50:48;4.90;;;1.03;;
10216;SDS011;5152;59.674;16.838;2022-07-06T00:53:15;13.40;;;1.50;;
10216;SDS011;5152;59.674;16.838;2022-07-06T00:55:41;7.87;;;1.60;;
10216;SDS011;5152;59.674;16.838;2022-07-06T00:58:09;4.27;;;1.30;;
10216;SDS011;5152;59.674;16.838;2022-07-06T01:00:35;2.10;;;1.03;;
10216;SDS011;5152;59.674;16.838;2022-07-06T01:03:03;8.07;;;1.40;;
10216;SDS011;5152;59.674;16.838;2022-07-06T01:05:30;12.67;;;1.90;;
10216;SDS011;5152;59.674;16.838;2022-07-06T01:07:58;5.73;;;1.37;;
10216;SDS011;5152;59.674;16.838;2022-07-06T01:10:26;5.60;;;1.50;;
10216;SDS011;5152;59.674;16.838;2022-07-06T01:12:52;6.20;;;2.00;;
10216;SDS011;5152;59.674;16.838;2022-07-06T01:15:21;7.47;;;1.70;;
10216;SDS011;5152;59.674;16.838;2022-07-06T01:17:49;6.70;;;1.77;;
10216;SDS011;5152;59.674;16.838;2022-07-06T01:20:17;6.97;;;1.30;;
10216;SDS011;5152;59.674;16.838;2022-07-06T01:22:45;6.83;;;1.53;;
10216;SDS011;5152;59.674;16.838;2022-07-06T01:25:12;5.00;;;1.80;;
10216;SDS011;5152;59.674;16.838;2022-07-06T01:27:39;9.37;;;1.40;;
10216;SDS011;5152;59.674;16.838;2022-07-06T01:30:08;6.33;;;1.70;;
10216;SDS011;5152;59.674;16.838;2022-07-06T01:32:37;5.40;;;1.60;;
10216;SDS011;5152;59.674;16.838;2022-07-06T01:35:05;4.10;;;1.30;;
10216;SDS011;5152;59.674;16.838;2022-07-06T01:37:34;3.93;;;1.30;;
10216;SDS011;5152;59.674;16.838;2022-07-06T01:40:01;9.10;;;1.60;;
10216;SDS011;5152;59.674;16.838;2022-07-06T01:42:30;5.33;;;1.97;;
10216;SDS011;5152;59.674;16.838;2022-07-06T01:44:57;6.73;;;1.93;;
10216;SDS011;5152;59.674;16.838;2022-07-06T01:47:25;9.93;;;1.60;;
10216;SDS011;5152;59.674;16.838;2022-07-06T01:49:52;10.23;;;1.90;;
10216;SDS011;5152;59.674;16.838;2022-07-06T01:52:18;4.70;;;1.80;;
10216;SDS011;5152;59.674;16.838;2022-07-06T01:54:46;5.67;;;1.70;;
10216;SDS011;5152;59.674;16.838;2022-07-06T01:57:13;4.93;;;1.50;;
10216;SDS011;5152;59.674;16.838;2022-07-06T01:59:40;5.30;;;2.00;;
10216;SDS011;5152;59.674;16.838;2022-07-06T02:02:06;8.70;;;1.70;;
10216;SDS011;5152;59.674;16.838;2022-07-06T02:04:33;9.37;;;2.13;;
10216;SDS011;5152;59.674;16.838;2022-07-06T02:07:00;5.50;;;1.67;;
10216;SDS011;5152;59.674;16.838;2022-07-06T02:09:27;4.10;;;1.57;;
10216;SDS011;5152;59.674;16.838;2022-07-06T02:11:55;8.27;;;2.07;;
10216;SDS011;5152;59.674;16.838;2022-07-06T02:14:22;5.87;;;1.27;;
10216;SDS011;5152;59.674;16.838;2022-07-06T02:16:49;6.20;;;1.60;;
10216;SDS011;5152;59.674;16.838;2022-07-06T02:19:15;9.47;;;2.13;;
10216;SDS011;5152;59.674;16.838;2022-07-06T02:21:42;7.03;;;1.43;;
10216;SDS011;5152;59.674;16.838;2022-07-06T02:24:09;3.87;;;1.70;;
10216;SDS011;5152;59.674;16.838;2022-07-06T02:26:35;7.23;;;1.70;;
10216;SDS011;5152;59.674;16.838;2022-07-06T02:29:03;6.40;;;1.97;;
10216;SDS011;5152;59.674;16.838;2022-07-06T02:31:30;7.40;;;1.70;;
10216;SDS011;5152;59.674;16.838;2022-07-06T02:33:57;9.40;;;1.73;;
10216;SDS011;5152;59.674;16.838;2022-07-06T02:36:23;8.37;;;2.33;;
10216;SDS011;5152;59.674;16.838;2022-07-06T02:38:50;11.03;;;1.97;;
10216;SDS011;5152;59.674;16.838;2022-07-06T02:41:17;7.77;;;2.13;;
10216;SDS011;5152;59.674;16.838;2022-07-06T02:43:43;6.20;;;1.80;;
10216;SDS011;5152;59.674;16.838;2022-07-06T02:46:12;7.83;;;1.90;;
10216;SDS011;5152;59.674;16.838;2022-07-06T02:48:39;10.80;;;2.20;;
10216;SDS011;5152;59.674;16.838;2022-07-06T02:51:05;6.40;;;1.57;;
10216;SDS011;5152;59.674;16.838;2022-07-06T02:53:32;4.43;;;1.53;;
10216;SDS011;5152;59.674;16.838;2022-07-06T02:55:59;8.83;;;2.10;;
10216;SDS011;5152;59.674;16.838;2022-07-06T02:58:25;6.47;;;1.80;;
10216;SDS011;5152;59.674;16.838;2022-07-06T03:00:52;6.27;;;1.90;;
10216;SDS011;5152;59.674;16.838;2022-07-06T03:03:20;11.50;;;1.90;;
10216;SDS011;5152;59.674;16.838;2022-07-06T03:05:47;8.90;;;1.83;;
10216;SDS011;5152;59.674;16.838;2022-07-06T03:08:13;5.50;;;1.80;;
10216;SDS011;5152;59.674;16.838;2022-07-06T03:10:40;5.93;;;2.07;;
10216;SDS011;5152;59.674;16.838;2022-07-06T03:13:07;5.97;;;1.80;;
10216;SDS011;5152;59.674;16.838;2022-07-06T03:15:34;10.33;;;2.40;;
10216;SDS011;5152;59.674;16.838;2022-07-06T03:18:01;9.10;;;2.07;;
10216;SDS011;5152;59.674;16.838;2022-07-06T03:20:29;10.30;;;2.00;;
10216;SDS011;5152;59.674;16.838;2022-07-06T03:22:56;7.50;;;1.90;;
10216;SDS011;5152;59.674;16.838;2022-07-06T03:25:22;6.60;;;2.20;;
10216;SDS011;5152;59.674;16.838;2022-07-06T03:27:49;9.63;;;2.30;;
10216;SDS011;5152;59.674;16.838;2022-07-06T03:30:16;7.40;;;2.23;;
10216;SDS011;5152;59.674;16.838;2022-07-06T03:32:42;8.80;;;2.10;;
10216;SDS011;5152;59.674;16.838;2022-07-06T03:35:09;5.23;;;2.20;;
10216;SDS011;5152;59.674;16.838;2022-07-06T03:37:37;10.60;;;1.93;;
10216;SDS011;5152;59.674;16.838;2022-07-06T03:40:05;7.07;;;2.27;;
10216;SDS011;5152;59.674;16.838;2022-07-06T03:42:32;7.17;;;1.73;;
10216;SDS011;5152;59.674;16.838;2022-07-06T03:44:59;7.93;;;1.93;;
10216;SDS011;5152;59.674;16.838;2022-07-06T03:47:25;6.37;;;1.70;;
10216;SDS011;5152;59.674;16.838;2022-07-06T03:49:52;9.33;;;2.17;;
10216;SDS011;5152;59.674;16.838;2022-07-06T03:52:19;9.60;;;2.20;;
10216;SDS011;5152;59.674;16.838;2022-07-06T03:54:47;13.10;;;2.37;;
10216;SDS011;5152;59.674;16.838;2022-07-06T03:57:14;7.77;;;2.10;;
10216;SDS011;5152;59.674;16.838;2022-07-06T03:59:41;8.97;;;2.10;;
10216;SDS011;5152;59.674;16.838;2022-07-06T04:02:08;6.30;;;2.17;;
10216;SDS011;5152;59.674;16.838;2022-07-06T04:04:35;5.13;;;2.10;;
10216;SDS011;5152;59.674;16.838;2022-07-06T04:07:02;6.90;;;1.60;;
10216;SDS011;5152;59.674;16.838;2022-07-06T04:09:29;6.20;;;1.60;;
10216;SDS011;5152;59.674;16.838;2022-07-06T04:11:57;4.00;;;1.53;;
10216;SDS011;5152;59.674;16.838;2022-07-06T04:14:23;7.10;;;1.90;;
10216;SDS011;5152;59.674;16.838;2022-07-06T04:16:52;12.87;;;2.63;;
10216;SDS011;5152;59.674;16.838;2022-07-06T04:19:19;5.30;;;1.80;;
10216;SDS011;5152;59.674;16.838;2022-07-06T04:21:45;8.17;;;2.43;;
10216;SDS011;5152;59.674;16.838;2022-07-06T04:24:12;9.90;;;1.90;;
10216;SDS011;5152;59.674;16.838;2022-07-06T04:26:39;5.33;;;1.87;;
10216;SDS011;5152;59.674;16.838;2022-07-06T04:29:07;10.67;;;2.33;;
10216;SDS011;5152;59.674;16.838;2022-07-06T04:31:33;10.50;;;2.33;;
10216;SDS011;5152;59.674;16.838;2022-07-06T04:34:00;11.00;;;2.63;;
10216;SDS011;5152;59.674;16.838;2022-07-06T04:36:27;9.03;;;2.37;;
10216;SDS011;5152;59.674;16.838;2022-07-06T04:38:53;6.00;;;2.00;;
10216;SDS011;5152;59.674;16.838;2022-07-06T04:41:20;8.83;;;2.63;;
10216;SDS011;5152;59.674;16.838;2022-07-06T04:43:47;5.83;;;1.97;;
10216;SDS011;5152;59.674;16.838;2022-07-06T04:46:15;5.70;;;1.80;;
10216;SDS011;5152;59.674;16.838;2022-07-06T04:48:42;11.20;;;2.17;;
10216;SDS011;5152;59.674;16.838;2022-07-06T04:51:08;11.00;;;2.80;;
10216;SDS011;5152;59.674;16.838;2022-07-06T04:53:35;7.27;;;2.10;;
10216;SDS011;5152;59.674;16.838;2022-07-06T04:56:03;4.97;;;2.00;;
10216;SDS011;5152;59.674;16.838;2022-07-06T04:58:30;14.63;;;2.60;;
10216;SDS011;5152;59.674;16.838;2022-07-06T05:00:56;7.20;;;1.70;;
10216;SDS011;5152;59.674;16.838;2022-07-06T05:03:25;5.43;;;2.50;;
10216;SDS011;5152;59.674;16.838;2022-07-06T05:05:52;5.10;;;1.90;;
10216;SDS011;5152;59.674;16.838;2022-07-06T05:08:18;6.53;;;1.73;;
10216;SDS011;5152;59.674;16.838;2022-07-06T05:10:45;8.93;;;2.10;;
10216;SDS011;5152;59.674;16.838;2022-07-06T05:13:12;10.53;;;2.50;;
10216;SDS011;5152;59.674;16.838;2022-07-06T05:15:38;6.77;;;2.00;;
10216;SDS011;5152;59.674;16.838;2022-07-06T05:18:05;4.70;;;1.53;;
10216;SDS011;5152;59.674;16.838;2022-07-06T05:20:33;11.87;;;2.43;;
10216;SDS011;5152;59.674;16.838;2022-07-06T05:23:00;8.50;;;1.80;;
10216;SDS011;5152;59.674;16.838;2022-07-06T05:25:26;8.17;;;2.17;;
10216;SDS011;5152;59.674;16.838;2022-07-06T05:27:54;6.33;;;2.00;;
10216;SDS011;5152;59.674;16.838;2022-07-06T05:30:20;5.80;;;1.83;;
10216;SDS011;5152;59.674;16.838;2022-07-06T05:32:48;7.73;;;1.70;;
10216;SDS011;5152;59.674;16.838;2022-07-06T05:35:14;6.10;;;1.87;;
10216;SDS011;5152;59.674;16.838;2022-07-06T05:37:42;10.60;;;1.97;;
10216;SDS011;5152;59.674;16.838;2022-07-06T05:40:10;4.47;;;1.70;;
10216;SDS011;5152;59.674;16.838;2022-07-06T05:42:37;9.23;;;2.43;;
10216;SDS011;5152;59.674;16.838;2022-07-06T05:45:04;6.33;;;1.87;;
10216;SDS011;5152;59.674;16.838;2022-07-06T05:47:32;8.60;;;2.03;;
10216;SDS011;5152;59.674;16.838;2022-07-06T05:50:16;6.00;;;1.97;;
10216;SDS011;5152;59.674;16.838;2022-07-06T05:52:54;5.63;;;1.40;;
10216;SDS011;5152;59.674;16.838;2022-07-06T05:55:22;2.83;;;1.40;;
10216;SDS011;5152;59.674;16.838;2022-07-06T05:57:49;7.83;;;2.00;;
10216;SDS011;5152;59.674;16.838;2022-07-06T06:00:16;5.00;;;1.80;;
10216;SDS011;5152;59.674;16.838;2022-07-06T06:02:43;13.67;;;2.20;;
10216;SDS011;5152;59.674;16.838;2022-07-06T06:05:10;7.83;;;1.67;;
10216;SDS011;5152;59.674;16.838;2022-07-06T06:07:37;5.60;;;1.60;;
10216;SDS011;5152;59.674;16.838;2022-07-06T06:10:07;7.70;;;1.60;;
10216;SDS011;5152;59.674;16.838;2022-07-06T06:12:35;5.43;;;1.60;;
10216;SDS011;5152;59.674;16.838;2022-07-06T06:15:02;7.43;;;1.60;;
10216;SDS011;5152;59.674;16.838;2022-07-06T06:17:29;6.33;;;1.33;;
10216;SDS011;5152;59.674;16.838;2022-07-06T06:19:56;6.23;;;1.67;;
10216;SDS011;5152;59.674;16.838;2022-07-06T06:22:23;9.10;;;1.80;;
10216;SDS011;5152;59.674;16.838;2022-07-06T06:24:50;9.90;;;2.27;;
10216;SDS011;5152;59.674;16.838;2022-07-06T06:27:18;5.93;;;1.40;;
10216;SDS011;5152;59.674;16.838;2022-07-06T06:29:45;5.07;;;1.57;;
10216;SDS011;5152;59.674;16.838;2022-07-06T06:32:12;6.37;;;1.80;;
10216;SDS011;5152;59.674;16.838;2022-07-06T06:34:39;6.50;;;1.70;;
10216;SDS011;5152;59.674;16.838;2022-07-06T06:37:06;6.37;;;1.47;;
10216;SDS011;5152;59.674;16.838;2022-07-06T06:39:32;8.10;;;1.73;;
10216;SDS011;5152;59.674;16.838;2022-07-06T06:41:59;7.10;;;2.10;;
10216;SDS011;5152;59.674;16.838;2022-07-06T06:44:27;7.33;;;1.77;;
10216;SDS011;5152;59.674;16.838;2022-07-06T06:46:54;5.00;;;1.50;;
10216;SDS011;5152;59.674;16.838;2022-07-06T06:49:21;9.67;;;1.70;;
10216;SDS011;5152;59.674;16.838;2022-07-06T06:51:47;4.87;;;1.87;;
10216;SDS011;5152;59.674;16.838;2022-07-06T06:54:14;4.47;;;1.83;;
10216;SDS011;5152;59.674;16.838;2022-07-06T06:56:41;5.07;;;1.63;;
10216;SDS011;5152;59.674;16.838;2022-07-06T06:59:07;2.90;;;1.60;;
10216;SDS011;5152;59.674;16.838;2022-07-06T07:01:35;4.00;;;1.57;;
10216;SDS011;5152;59.674;16.838;2022-07-06T07:04:02;6.47;;;1.70;;
10216;SDS011;5152;59.674;16.838;2022-07-06T07:06:29;6.87;;;1.83;;
10216;SDS011;5152;59.674;16.838;2022-07-06T07:08:56;5.73;;;1.53;;
10216;SDS011;5152;59.674;16.838;2022-07-06T07:11:22;9.57;;;1.57;;
10216;SDS011;5152;59.674;16.838;2022-07-06T07:13:49;6.33;;;1.67;;
10216;SDS011;5152;59.674;16.838;2022-07-06T07:16:16;7.73;;;1.77;;
10216;SDS011;5152;59.674;16.838;2022-07-06T07:18:44;6.67;;;2.27;;
10216;SDS011;5152;59.674;16.838;2022-07-06T07:21:11;2.80;;;1.30;;
10216;SDS011;5152;59.674;16.838;2022-07-06T07:23:38;6.10;;;1.50;;
10216;SDS011;5152;59.674;16.838;2022-07-06T07:26:04;4.80;;;1.80;;
10216;SDS011;5152;59.674;16.838;2022-07-06T07:28:31;6.20;;;1.60;;
10216;SDS011;5152;59.674;16.838;2022-07-06T07:30:58;5.83;;;1.87;;
10216;SDS011;5152;59.674;16.838;2022-07-06T07:33:25;5.03;;;1.60;;
10216;SDS011;5152;59.674;16.838;2022-07-06T07:35:53;5.60;;;1.50;;
10216;SDS011;5152;59.674;16.838;2022-07-06T07:38:20;7.80;;;1.60;;
10216;SDS011;5152;59.674;16.838;2022-07-06T07:40:46;12.60;;;5.40;;
10216;SDS011;5152;59.674;16.838;2022-07-06T07:43:13;7.83;;;3.23;;
10216;SDS011;5152;59.674;16.838;2022-07-06T07:45:40;5.53;;;1.93;;
10216;SDS011;5152;59.674;16.838;2022-07-06T07:48:07;7.40;;;2.80;;
10216;SDS011;5152;59.674;16.838;2022-07-06T07:50:34;4.80;;;1.80;;
10216;SDS011;5152;59.674;16.838;2022-07-06T07:53:02;7.43;;;3.03;;
10216;SDS011;5152;59.674;16.838;2022-07-06T07:55:29;7.20;;;1.87;;
10216;SDS011;5152;59.674;16.838;2022-07-06T07:57:55;5.10;;;2.40;;
10216;SDS011;5152;59.674;16.838;2022-07-06T08:00:22;3.13;;;1.63;;
10216;SDS011;5152;59.674;16.838;2022-07-06T08:02:49;6.00;;;1.70;;
10216;SDS011;5152;59.674;16.838;2022-07-06T08:05:16;7.63;;;1.80;;
10216;SDS011;5152;59.674;16.838;2022-07-06T08:07:43;6.80;;;2.10;;
10216;SDS011;5152;59.674;16.838;2022-07-06T08:10:12;7.40;;;1.60;;
10216;SDS011;5152;59.674;16.838;2022-07-06T08:12:38;6.90;;;1.80;;
10216;SDS011;5152;59.674;16.838;2022-07-06T08:15:06;3.10;;;1.50;;
10216;SDS011;5152;59.674;16.838;2022-07-06T08:17:33;3.83;;;1.90;;
10216;SDS011;5152;59.674;16.838;2022-07-06T08:20:00;8.17;;;1.77;;
10216;SDS011;5152;59.674;16.838;2022-07-06T08:22:27;5.03;;;2.30;;
10216;SDS011;5152;59.674;16.838;2022-07-06T08:24:54;6.43;;;1.93;;
10216;SDS011;5152;59.674;16.838;2022-07-06T08:27:23;4.13;;;1.70;;
10216;SDS011;5152;59.674;16.838;2022-07-06T08:29:49;5.03;;;1.77;;
10216;SDS011;5152;59.674;16.838;2022-07-06T08:32:16;4.47;;;1.33;;
10216;SDS011;5152;59.674;16.838;2022-07-06T08:34:44;5.43;;;1.90;;
10216;SDS011;5152;59.674;16.838;2022-07-06T08:37:11;5.67;;;1.60;;
10216;SDS011;5152;59.674;16.838;2022-07-06T08:39:38;4.83;;;1.50;;
10216;SDS011;5152;59.674;16.838;2022-07-06T08:42:05;7.13;;;1.37;;
10216;SDS011;5152;59.674;16.838;2022-07-06T08:44:35;4.27;;;1.37;;
10216;SDS011;5152;59.674;16.838;2022-07-06T08:47:04;4.80;;;1.30;;
10216;SDS011;5152;59.674;16.838;2022-07-06T08:49:31;8.30;;;1.87;;
10216;SDS011;5152;59.674;16.838;2022-07-06T08:51:59;3.30;;;1.50;;
10216;SDS011;5152;59.674;16.838;2022-07-06T08:54:26;3.20;;;1.63;;
10216;SDS011;5152;59.674;16.838;2022-07-06T08:56:53;8.77;;;1.50;;
10216;SDS011;5152;59.674;16.838;2022-07-06T08:59:19;3.47;;;1.40;;
10216;SDS011;5152;59.674;16.838;2022-07-06T09:01:48;9.00;;;1.30;;
10216;SDS011;5152;59.674;16.838;2022-07-06T09:04:15;3.63;;;1.30;;
10216;SDS011;5152;59.674;16.838;2022-07-06T09:06:43;4.53;;;1.20;;
10216;SDS011;5152;59.674;16.838;2022-07-06T09:09:12;5.07;;;1.40;;
10216;SDS011;5152;59.674;16.838;2022-07-06T09:11:44;4.10;;;1.00;;
10216;SDS011;5152;59.674;16.838;2022-07-06T09:14:11;6.63;;;1.40;;
10216;SDS011;5152;59.674;16.838;2022-07-06T09:16:38;3.07;;;1.03;;
10216;SDS011;5152;59.674;16.838;2022-07-06T09:19:06;2.37;;;1.17;;
10216;SDS011;5152;59.674;16.838;2022-07-06T09:21:33;6.93;;;1.40;;
10216;SDS011;5152;59.674;16.838;2022-07-06T09:24:03;5.13;;;1.50;;
10216;SDS011;5152;59.674;16.838;2022-07-06T09:26:33;4.07;;;1.50;;
10216;SDS011;5152;59.674;16.838;2022-07-06T09:29:00;6.97;;;1.30;;
10216;SDS011;5152;59.674;16.838;2022-07-06T09:31:27;3.77;;;1.10;;
10216;SDS011;5152;59.674;16.838;2022-07-06T09:33:54;6.03;;;1.30;;
10216;SDS011;5152;59.674;16.838;2022-07-06T09:39:24;2.60;;;1.03;;
10216;SDS011;5152;59.674;16.838;2022-07-06T09:41:52;5.40;;;1.37;;
10216;SDS011;5152;59.674;16.838;2022-07-06T09:44:20;2.67;;;1.15;;
10216;SDS011;5152;59.674;16.838;2022-07-06T09:46:49;3.38;;;1.10;;
10216;SDS011;5152;59.674;16.838;2022-07-06T09:49:16;5.10;;;1.10;;
10216;SDS011;5152;59.674;16.838;2022-07-06T09:51:44;7.00;;;1.40;;
10216;SDS011;5152;59.674;16.838;2022-07-06T09:54:12;3.25;;;1.10;;
10216;SDS011;5152;59.674;16.838;2022-07-06T09:56:40;4.55;;;1.30;;
10216;SDS011;5152;59.674;16.838;2022-07-06T09:59:08;3.80;;;1.50;;
10216;SDS011;5152;59.674;16.838;2022-07-06T10:01:35;4.03;;;1.40;;
10216;SDS011;5152;59.674;16.838;2022-07-06T10:04:02;5.25;;;1.50;;
10216;SDS011;5152;59.674;16.838;2022-07-06T10:06:29;3.22;;;1.25;;
10216;SDS011;5152;59.674;16.838;2022-07-06T10:08:58;4.78;;;1.33;;
10216;SDS011;5152;59.674;16.838;2022-07-06T10:11:29;3.60;;;1.27;;
10216;SDS011;5152;59.674;16.838;2022-07-06T10:13:57;3.33;;;1.33;;
10216;SDS011;5152;59.674;16.838;2022-07-06T10:16:24;6.03;;;1.80;;
10216;SDS011;5152;59.674;16.838;2022-07-06T10:18:52;4.03;;;1.30;;
10216;SDS011;5152;59.674;16.838;2022-07-06T10:21:20;3.63;;;1.10;;
10216;SDS011;5152;59.674;16.838;2022-07-06T10:23:48;3.47;;;1.30;;
10216;SDS011;5152;59.674;16.838;2022-07-06T10:26:15;3.50;;;1.30;;
10216;SDS011;5152;59.674;16.838;2022-07-06T10:28:44;6.65;;;1.42;;
10216;SDS011;5152;59.674;16.838;2022-07-06T10:31:12;3.30;;;1.13;;
10216;SDS011;5152;59.674;16.838;2022-07-06T10:33:40;9.93;;;1.40;;
10216;SDS011;5152;59.674;16.838;2022-07-06T10:36:08;4.47;;;1.40;;
10216;SDS011;5152;59.674;16.838;2022-07-06T10:38:35;3.92;;;1.20;;
10216;SDS011;5152;59.674;16.838;2022-07-06T10:41:02;5.03;;;1.40;;
10216;SDS011;5152;59.674;16.838;2022-07-06T10:43:32;2.50;;;1.20;;
10216;SDS011;5152;59.674;16.838;2022-07-06T10:46:06;4.20;;;1.30;;
10216;SDS011;5152;59.674;16.838;2022-07-06T10:48:35;3.67;;;1.35;;
10216;SDS011;5152;59.674;16.838;2022-07-06T10:51:03;4.78;;;1.63;;
10216;SDS011;5152;59.674;16.838;2022-07-06T10:53:31;12.73;;;1.55;;
10216;SDS011;5152;59.674;16.838;2022-07-06T10:56:00;2.75;;;1.10;;
10216;SDS011;5152;59.674;16.838;2022-07-06T10:58:36;7.53;;;1.50;;
10216;SDS011;5152;59.674;16.838;2022-07-06T11:01:09;7.27;;;1.20;;
10216;SDS011;5152;59.674;16.838;2022-07-06T11:03:38;7.30;;;1.30;;
10216;SDS011;5152;59.674;16.838;2022-07-06T11:06:07;4.03;;;1.20;;
10216;SDS011;5152;59.674;16.838;2022-07-06T11:08:45;7.27;;;1.00;;
10216;SDS011;5152;59.674;16.838;2022-07-06T11:11:14;0.40;;;0.40;;
10216;SDS011;5152;59.674;16.838;2022-07-06T11:13:43;3.40;;;0.77;;
10216;SDS011;5152;59.674;16.838;2022-07-06T11:16:15;10.17;;;0.90;;
10216;SDS011;5152;59.674;16.838;2022-07-06T11:18:46;1.97;;;0.70;;
10216;SDS011;5152;59.674;16.838;2022-07-06T11:21:15;2.93;;;0.83;;
10216;SDS011;5152;59.674;16.838;2022-07-06T11:23:42;4.07;;;1.20;;
10216;SDS011;5152;59.674;16.838;2022-07-06T11:26:09;1.97;;;0.93;;
10216;SDS011;5152;59.674;16.838;2022-07-06T11:28:36;3.53;;;1.03;;
10216;SDS011;5152;59.674;16.838;2022-07-06T11:31:03;4.07;;;1.30;;
10216;SDS011;5152;59.674;16.838;2022-07-06T11:33:32;2.63;;;1.00;;
10216;SDS011;5152;59.674;16.838;2022-07-06T11:36:12;6.45;;;1.10;;
10216;SDS011;5152;59.674;16.838;2022-07-06T11:38:42;3.25;;;1.30;;
10216;SDS011;5152;59.674;16.838;2022-07-06T11:41:11;2.35;;;1.10;;
10216;SDS011;5152;59.674;16.838;2022-07-06T11:43:39;2.05;;;0.90;;
10216;SDS011;5152;59.674;16.838;2022-07-06T11:46:18;1.33;;;0.90;;
10216;SDS011;5152;59.674;16.838;2022-07-06T11:48:47;1.98;;;1.10;;
10216;SDS011;5152;59.674;16.838;2022-07-06T11:51:14;2.40;;;1.15;;
10216;SDS011;5152;59.674;16.838;2022-07-06T11:53:42;6.18;;;1.42;;
10216;SDS011;5152;59.674;16.838;2022-07-06T11:56:10;3.92;;;1.10;;
10216;SDS011;5152;59.674;16.838;2022-07-06T11:58:38;1.13;;;0.80;;
10216;SDS011;5152;59.674;16.838;2022-07-06T12:01:08;3.75;;;1.13;;
10216;SDS011;5152;59.674;16.838;2022-07-06T12:03:35;6.68;;;0.93;;
10216;SDS011;5152;59.674;16.838;2022-07-06T12:06:04;1.63;;;0.68;;
10216;SDS011;5152;59.674;16.838;2022-07-06T12:08:32;3.63;;;0.70;;
10216;SDS011;5152;59.674;16.838;2022-07-06T12:11:07;1.40;;;0.75;;
10216;SDS011;5152;59.674;16.838;2022-07-06T12:13:35;5.07;;;0.85;;
10216;SDS011;5152;59.674;16.838;2022-07-06T12:16:08;0.95;;;0.60;;
10216;SDS011;5152;59.674;16.838;2022-07-06T12:18:36;2.13;;;0.60;;
10216;SDS011;5152;59.674;16.838;2022-07-06T12:21:06;1.15;;;0.70;;
10216;SDS011;5152;59.674;16.838;2022-07-06T12:23:43;0.88;;;0.82;;
10216;SDS011;5152;59.674;16.838;2022-07-06T12:26:10;1.55;;;1.00;;
10216;SDS011;5152;59.674;16.838;2022-07-06T12:28:44;2.08;;;0.80;;
10216;SDS011;5152;59.674;16.838;2022-07-06T12:31:11;2.03;;;0.80;;
10216;SDS011;5152;59.674;16.838;2022-07-06T12:33:57;5.32;;;0.85;;
10216;SDS011;5152;59.674;16.838;2022-07-06T12:36:26;4.07;;;0.80;;
10216;SDS011;5152;59.674;16.838;2022-07-06T12:38:53;1.42;;;0.60;;
10216;SDS011;5152;59.674;16.838;2022-07-06T12:41:30;1.10;;;0.55;;
10216;SDS011;5152;59.674;16.838;2022-07-06T12:44:05;1.42;;;0.55;;
10216;SDS011;5152;59.674;16.838;2022-07-06T12:46:34;0.90;;;0.57;;
10216;SDS011;5152;59.674;16.838;2022-07-06T12:49:03;1.35;;;0.50;;
10216;SDS011;5152;59.674;16.838;2022-07-06T12:51:58;1.02;;;0.77;;
10216;SDS011;5152;59.674;16.838;2022-07-06T12:54:26;2.10;;;0.75;;
10216;SDS011;5152;59.674;16.838;2022-07-06T12:56:58;1.70;;;0.95;;
10216;SDS011;5152;59.674;16.838;2022-07-06T12:59:27;0.50;;;0.50;;
10216;SDS011;5152;59.674;16.838;2022-07-06T13:01:55;1.10;;;0.68;;
10216;SDS011;5152;59.674;16.838;2022-07-06T13:04:22;0.50;;;0.40;;
10216;SDS011;5152;59.674;16.838;2022-07-06T13:06:49;3.97;;;0.65;;
10216;SDS011;5152;59.674;16.838;2022-07-06T13:09:18;2.63;;;0.70;;
10216;SDS011;5152;59.674;16.838;2022-07-06T13:11:46;2.33;;;0.52;;
10216;SDS011;5152;59.674;16.838;2022-07-06T13:14:13;1.63;;;0.40;;
10216;SDS011;5152;59.674;16.838;2022-07-06T13:16:39;0.90;;;0.40;;
10216;SDS011;5152;59.674;16.838;2022-07-06T13:19:06;1.20;;;0.40;;
10216;SDS011;5152;59.674;16.838;2022-07-06T13:21:34;0.73;;;0.50;;
10216;SDS011;5152;59.674;16.838;2022-07-06T13:24:01;1.30;;;0.52;;
10216;SDS011;5152;59.674;16.838;2022-07-06T13:26:29;0.75;;;0.43;;
10216;SDS011;5152;59.674;16.838;2022-07-06T13:28:58;0.60;;;0.38;;
10216;SDS011;5152;59.674;16.838;2022-07-06T13:31:25;1.40;;;0.60;;
10216;SDS011;5152;59.674;16.838;2022-07-06T13:33:51;0.28;;;0.28;;
10216;SDS011;5152;59.674;16.838;2022-07-06T13:36:18;0.20;;;0.20;;
10216;SDS011;5152;59.674;16.838;2022-07-06T13:38:45;0.93;;;0.60;;
10216;SDS011;5152;59.674;16.838;2022-07-06T13:41:11;0.77;;;0.40;;
10216;SDS011;5152;59.674;16.838;2022-07-06T13:43:40;0.40;;;0.20;;
10216;SDS011;5152;59.674;16.838;2022-07-06T13:46:07;2.25;;;0.60;;
10216;SDS011;5152;59.674;16.838;2022-07-06T13:48:35;1.38;;;0.57;;
10216;SDS011;5152;59.674;16.838;2022-07-06T13:51:02;0.65;;;0.35;;
10216;SDS011;5152;59.674;16.838;2022-07-06T13:53:29;0.85;;;0.40;;
10216;SDS011;5152;59.674;16.838;2022-07-06T13:55:56;3.40;;;0.37;;
10216;SDS011;5152;59.674;16.838;2022-07-06T13:58:23;0.60;;;0.30;;
10216;SDS011;5152;59.674;16.838;2022-07-06T14:00:51;3.00;;;0.40;;
10216;SDS011;5152;59.674;16.838;2022-07-06T14:03:18;1.13;;;0.40;;
10216;SDS011;5152;59.674;16.838;2022-07-06T14:05:45;1.13;;;0.40;;
10216;SDS011;5152;59.674;16.838;2022-07-06T14:08:11;1.13;;;0.30;;
10216;SDS011;5152;59.674;16.838;2022-07-06T14:10:38;0.37;;;0.37;;
10216;SDS011;5152;59.674;16.838;2022-07-06T14:13:05;0.93;;;0.33;;
10216;SDS011;5152;59.674;16.838;2022-07-06T14:15:31;1.00;;;0.40;;
10216;SDS011;5152;59.674;16.838;2022-07-06T14:18:00;2.53;;;0.77;;
10216;SDS011;5152;59.674;16.838;2022-07-06T14:20:27;1.25;;;0.68;;
10216;SDS011;5152;59.674;16.838;2022-07-06T14:22:53;0.80;;;0.57;;
10216;SDS011;5152;59.674;16.838;2022-07-06T14:25:20;1.77;;;0.60;;
10216;SDS011;5152;59.674;16.838;2022-07-06T14:27:47;2.77;;;0.70;;
10216;SDS011;5152;59.674;16.838;2022-07-06T14:30:14;2.35;;;0.55;;
10216;SDS011;5152;59.674;16.838;2022-07-06T14:32:40;2.00;;;0.50;;
10216;SDS011;5152;59.674;16.838;2022-07-06T14:35:10;1.77;;;0.63;;
10216;SDS011;5152;59.674;16.838;2022-07-06T14:37:37;1.40;;;0.20;;
10216;SDS011;5152;59.674;16.838;2022-07-06T14:40:04;0.40;;;0.40;;
10216;SDS011;5152;59.674;16.838;2022-07-06T14:42:32;2.03;;;0.60;;
10216;SDS011;5152;59.674;16.838;2022-07-06T14:44:58;2.23;;;0.70;;
10216;SDS011;5152;59.674;16.838;2022-07-06T14:47:25;1.70;;;0.50;;
10216;SDS011;5152;59.674;16.838;2022-07-06T14:49:52;0.70;;;0.50;;
10216;SDS011;5152;59.674;16.838;2022-07-06T14:52:20;2.30;;;0.50;;
10216;SDS011;5152;59.674;16.838;2022-07-06T14:54:47;0.98;;;0.40;;